This is the latest recevied weather packets stored in our database for station/object KD8NVS-13. If no packets are shown the sender has not sent any weather packets the latest 10 day(s).
| Time | Temp. | Humidity | Pressure | Rain* | Wind** | Luminosity | Snow |
|---|---|---|---|---|---|---|---|
| 1777811697 | 5.56° C | 74% | 1009.7 hPa | 0 mm | - | 217 W/m² | - |
| 1777811392 | 5.56° C | 75% | 1009.4 hPa | 0 mm | - | 199 W/m² | - |
| 1777811089 | 5.56° C | 74% | 1009 hPa | 0 mm | - | 183 W/m² | - |
| 1777810786 | 5° C | 75% | 1009 hPa | 0 mm | - | 167 W/m² | - |
| 1777810483 | 5° C | 76% | 1009 hPa | 0 mm | - | 153 W/m² | - |
| 1777810179 | 5° C | 77% | 1009.4 hPa | 0 mm | - | 141 W/m² | - |
| 1777809876 | 4.44° C | 78% | 1009 hPa | 0 mm | - | 126 W/m² | - |
| 1777809574 | 4.44° C | 78% | 1009 hPa | 0 mm | - | 113 W/m² | - |
| 1777809272 | 4.44° C | 80% | 1009 hPa | 0 mm | - | 99 W/m² | - |
| 1777808969 | 3.89° C | 80% | 1009 hPa | 0 mm | - | 84 W/m² | - |
| 1777808666 | 3.89° C | 81% | 1008.7 hPa | 0 mm | - | 74 W/m² | - |
| 1777808363 | 3.33° C | 84% | 1008.7 hPa | 0 mm | - | 62 W/m² | - |
| 1777808062 | 2.78° C | 88% | 1009 hPa | 0 mm | - | 54 W/m² | - |
| 1777807758 | 1.67° C | 94% | 1008.7 hPa | 0 mm | - | 49 W/m² | - |
| 1777807456 | 1.11° C | 97% | 1008.7 hPa | 0 mm | - | 44 W/m² | - |
| 1777807151 | 0.56° C | 97% | 1008.3 hPa | 0 mm | - | 41 W/m² | - |
| 1777806850 | 0.56° C | 97% | 1008.3 hPa | 0 mm | - | 37 W/m² | - |
| 1777806545 | 0° C | 97% | 1008.3 hPa | 0 mm | - | 39 W/m² | - |
| 1777806242 | 0° C | 97% | 1008.7 hPa | 0 mm | - | 24 W/m² | - |
| 1777805938 | -0.56° C | 97% | 1008.3 hPa | 0 mm | - | 19 W/m² | - |
| 1777805635 | -0.56° C | 97% | 1008.3 hPa | 0 mm | - | 15 W/m² | - |
| 1777805333 | -0.56° C | 97% | 1008 hPa | 0 mm | - | 11 W/m² | - |
| 1777805030 | -0.56° C | 97% | 1008.3 hPa | 0 mm | - | 6 W/m² | - |
| 1777804728 | -1.11° C | 97% | 1008.3 hPa | 0 mm | - | 5 W/m² | - |
| 1777804426 | -1.11° C | 97% | 1008 hPa | 0 mm | - | 3 W/m² | - |
* Rain latest hour (hover to see other rain measurements)
** Current wind speed in m/s (hover to see current wind gust speed)